createdAt,value
2018-12-06T00:00:49.009Z,106.43
2018-12-06T00:03:19.421Z,90.37
2018-12-06T00:43:17.245Z,73.10
2018-12-06T00:45:47.365Z,82.20
2018-12-06T00:48:17.266Z,87.43
2018-12-06T00:50:55.388Z,84.37
2018-12-06T00:53:24.984Z,87.33
2018-12-06T00:55:54.597Z,92.77
2018-12-06T00:58:24.087Z,90.57
2018-12-06T01:00:53.790Z,91.17
2018-12-06T01:03:24.031Z,92.37
2018-12-06T01:05:53.727Z,103.17
2018-12-06T01:08:23.436Z,99.63
2018-12-06T01:10:53.550Z,91.00
2018-12-06T01:13:23.576Z,92.13
2018-12-06T01:15:53.405Z,96.53
2018-12-06T01:18:26.185Z,89.53
2018-12-06T01:20:55.872Z,84.63
2018-12-06T01:23:25.578Z,87.13
2018-12-06T01:25:55.391Z,73.63
2018-12-06T01:28:25.018Z,84.33
2018-12-06T01:30:54.710Z,76.13
2018-12-06T01:33:24.317Z,79.50
2018-12-06T01:35:54.344Z,79.80
2018-12-06T01:38:24.358Z,84.17
2018-12-06T01:40:53.965Z,77.63
2018-12-06T01:43:23.785Z,76.53
2018-12-06T01:45:53.368Z,69.13
2018-12-06T01:48:23.406Z,75.80
2018-12-06T01:50:52.997Z,68.00
2018-12-06T01:53:22.393Z,81.40
2018-12-06T01:55:52.235Z,68.27
2018-12-06T01:58:22.037Z,64.17
2018-12-06T02:00:51.854Z,67.13
2018-12-06T02:03:24.642Z,57.57
2018-12-06T02:05:54.418Z,60.67
2018-12-06T02:08:24.029Z,68.07
2018-12-06T02:10:53.861Z,81.60
2018-12-06T02:13:23.447Z,86.70
2018-12-06T02:15:53.168Z,83.27
2018-12-06T02:18:22.876Z,84.57
2018-12-06T02:20:52.586Z,89.53
2018-12-06T02:23:22.416Z,80.33
2018-12-06T02:25:52.415Z,66.77
2018-12-06T02:28:21.910Z,59.30
2018-12-06T02:30:51.410Z,62.90
2018-12-06T02:33:21.952Z,64.97
2018-12-06T02:35:51.649Z,65.70
2018-12-06T02:38:21.043Z,71.20
2018-12-06T02:40:50.975Z,74.70
2018-12-06T02:43:20.781Z,77.57
2018-12-06T02:45:50.931Z,73.37
2018-12-06T02:48:21.036Z,82.20
2018-12-06T02:50:51.143Z,72.50
2018-12-06T02:53:22.396Z,77.60
2018-12-06T02:55:56.055Z,74.47
2018-12-06T02:58:35.927Z,72.97
2018-12-06T03:01:14.953Z,70.40
2018-12-06T03:03:46.411Z,81.43
2018-12-06T03:06:16.962Z,69.60
2018-12-06T03:08:47.272Z,79.43
2018-12-06T03:11:19.344Z,76.97
2018-12-06T03:13:49.865Z,71.73
2018-12-06T03:16:19.659Z,73.63
2018-12-06T03:18:49.603Z,65.20
2018-12-06T03:21:19.490Z,64.73
2018-12-06T03:23:49.528Z,61.37
2018-12-06T03:26:19.428Z,65.67
2018-12-06T03:28:49.850Z,77.17
2018-12-06T03:31:19.674Z,61.07
2018-12-06T03:33:49.467Z,65.97
2018-12-06T03:36:18.971Z,59.10
2018-12-06T03:38:48.594Z,65.37
2018-12-06T03:41:18.199Z,64.23
2018-12-06T03:43:48.046Z,62.30
2018-12-06T03:46:18.032Z,71.20
2018-12-06T03:48:47.847Z,68.90
2018-12-06T03:51:17.659Z,71.43
2018-12-06T03:53:47.173Z,75.93
2018-12-06T03:56:16.976Z,71.90
2018-12-06T03:58:50.554Z,62.83
2018-12-06T04:01:20.273Z,70.87
2018-12-06T04:03:49.984Z,68.73
2018-12-06T04:06:19.906Z,69.33
2018-12-06T04:08:49.706Z,68.03
2018-12-06T04:11:19.405Z,63.43
2018-12-06T04:13:49.425Z,67.67
2018-12-06T04:16:18.926Z,62.60
2018-12-06T04:18:48.534Z,59.17
2018-12-06T04:21:21.225Z,67.83
2018-12-06T04:23:50.947Z,59.70
2018-12-06T04:26:20.424Z,60.43
2018-12-06T04:28:50.058Z,52.70
2018-12-06T04:31:19.844Z,56.63
2018-12-06T04:33:49.778Z,56.30
2018-12-06T04:37:18.978Z,54.20
2018-12-06T04:39:48.599Z,59.77
2018-12-06T04:42:18.380Z,58.73
2018-12-06T04:44:49.023Z,57.50
2018-12-06T04:47:18.421Z,62.70
2018-12-06T04:49:48.432Z,65.83
2018-12-06T04:52:18.982Z,61.43
2018-12-06T04:54:48.467Z,61.13
2018-12-06T04:57:18.207Z,62.73
2018-12-06T04:59:47.993Z,59.53
2018-12-06T05:02:17.385Z,67.83
2018-12-06T05:04:47.000Z,74.97
2018-12-06T05:07:17.018Z,64.53
2018-12-06T05:09:46.417Z,62.60
2018-12-06T05:12:16.123Z,53.70
2018-12-06T05:14:45.959Z,61.50
2018-12-06T05:17:15.963Z,63.33
2018-12-06T05:19:45.776Z,57.13
2018-12-06T05:22:15.599Z,64.87
2018-12-06T05:24:45.491Z,69.10
2018-12-06T05:27:15.329Z,62.37
2018-12-06T05:29:44.701Z,60.30
2018-12-06T05:32:14.539Z,64.07
2018-12-06T05:34:44.430Z,62.20
2018-12-06T05:37:14.148Z,61.23
2018-12-06T05:39:44.046Z,59.77
2018-12-06T05:42:13.657Z,61.80
2018-12-06T05:44:43.472Z,55.43
2018-12-06T05:47:13.383Z,64.00
2018-12-06T05:49:42.989Z,67.53
2018-12-06T05:52:12.618Z,56.20
2018-12-06T05:54:45.791Z,51.27
2018-12-06T05:57:16.030Z,66.20
2018-12-06T05:59:46.867Z,56.33
2018-12-06T06:02:16.575Z,59.83
2018-12-06T06:04:46.382Z,62.43
2018-12-06T06:07:16.040Z,57.33
2018-12-06T06:09:46.030Z,60.60
2018-12-06T06:12:15.804Z,58.97
2018-12-06T06:14:45.711Z,57.67
2018-12-06T06:17:15.853Z,59.50
2018-12-06T06:19:45.865Z,57.73
2018-12-06T06:22:15.577Z,51.30
2018-12-06T06:24:45.177Z,62.93
2018-12-06T06:27:14.976Z,55.73
2018-12-06T06:29:44.600Z,60.80
2018-12-06T06:32:14.397Z,54.57
2018-12-06T06:34:44.001Z,54.57
2018-12-06T06:37:13.708Z,65.07
2018-12-06T06:39:43.422Z,57.17
2018-12-06T06:42:13.362Z,54.80
2018-12-06T06:44:43.030Z,64.33
2018-12-06T06:47:12.968Z,59.17
2018-12-06T06:49:43.205Z,57.37
2018-12-06T06:52:13.040Z,62.63
2018-12-06T06:54:43.025Z,67.23
2018-12-06T06:57:12.958Z,55.77
2018-12-06T06:59:42.425Z,65.97
2018-12-06T07:02:12.051Z,68.77
2018-12-06T07:04:42.150Z,67.77
2018-12-06T07:07:11.863Z,68.53
2018-12-06T07:09:41.998Z,65.37
2018-12-06T07:12:11.811Z,60.93
2018-12-06T07:14:41.828Z,59.93
2018-12-06T07:17:11.737Z,71.00
2018-12-06T07:19:41.884Z,68.47
2018-12-06T07:22:11.984Z,70.10
2018-12-06T07:24:41.775Z,76.03
2018-12-06T07:27:11.825Z,72.63
2018-12-06T07:29:41.745Z,76.70
2018-12-06T07:32:11.427Z,80.80
2018-12-06T07:34:41.058Z,67.03
2018-12-06T07:37:10.835Z,71.20
2018-12-06T07:39:40.846Z,70.13
2018-12-06T07:42:10.713Z,69.13
2018-12-06T07:44:40.585Z,77.40
2018-12-06T07:47:10.426Z,73.90
2018-12-06T07:49:40.633Z,76.87
2018-12-06T07:52:11.465Z,70.47
2018-12-06T07:54:41.466Z,70.40
2018-12-06T07:57:12.035Z,74.53
2018-12-06T07:59:42.515Z,75.73
2018-12-06T08:02:12.986Z,68.47
2018-12-06T08:04:43.366Z,72.30
2018-12-06T08:07:13.486Z,81.83
2018-12-06T08:09:43.945Z,78.47
2018-12-06T08:12:14.645Z,89.10
2018-12-06T08:14:44.874Z,94.40
2018-12-06T08:17:15.595Z,95.57
2018-12-06T08:19:45.956Z,93.93
2018-12-06T08:22:16.258Z,83.70
2018-12-06T08:24:46.669Z,85.90
2018-12-06T08:27:16.788Z,73.63
2018-12-06T08:29:46.805Z,73.77
2018-12-06T08:32:17.436Z,71.97
2018-12-06T08:34:47.977Z,75.40
2018-12-06T08:37:18.806Z,83.40
2018-12-06T08:39:49.957Z,74.93
2018-12-06T08:42:21.513Z,80.83
2018-12-06T08:44:53.526Z,81.17
2018-12-06T08:47:24.041Z,85.87
2018-12-06T08:49:53.920Z,88.20
2018-12-06T08:52:23.513Z,84.87
2018-12-06T08:54:53.648Z,94.47
2018-12-06T08:57:25.399Z,82.27
2018-12-06T08:59:55.835Z,86.07
2018-12-06T09:02:26.152Z,75.33
2018-12-06T09:04:56.043Z,71.43
2018-12-06T09:07:26.076Z,73.13
2018-12-06T09:09:56.809Z,73.30
2018-12-06T09:12:27.449Z,74.43
2018-12-06T09:14:58.388Z,82.83
2018-12-06T09:17:29.072Z,80.93
2018-12-06T09:19:59.348Z,78.27
2018-12-06T09:22:29.451Z,77.43
2018-12-06T09:25:01.006Z,82.30
2018-12-06T09:27:31.056Z,80.33
2018-12-06T09:30:01.435Z,77.33
2018-12-06T09:32:32.286Z,75.90
2018-12-06T09:35:02.305Z,83.13
2018-12-06T09:37:34.359Z,75.93
2018-12-06T09:40:05.018Z,76.80
2018-12-06T09:42:44.860Z,73.87
2018-12-06T09:45:23.472Z,76.70
2018-12-06T09:48:01.975Z,80.53
2018-12-06T09:50:31.997Z,78.43
2018-12-06T09:53:02.431Z,76.17
2018-12-06T09:55:32.429Z,73.43
2018-12-06T09:58:02.757Z,78.53
2018-12-06T10:00:32.870Z,85.40
2018-12-06T10:03:03.001Z,84.57
2018-12-06T10:05:32.918Z,91.20
2018-12-06T10:08:03.055Z,87.67
2018-12-06T10:10:33.973Z,85.53
2018-12-06T10:13:03.995Z,68.83
2018-12-06T10:15:34.958Z,64.17
2018-12-06T10:18:05.261Z,75.53
2018-12-06T10:20:35.056Z,66.77
2018-12-06T10:23:05.287Z,63.73
2018-12-06T10:25:35.488Z,63.17
2018-12-06T10:28:05.397Z,64.97
2018-12-06T10:30:35.655Z,67.73
2018-12-06T10:33:06.047Z,59.17
2018-12-06T10:35:36.385Z,63.43
2018-12-06T10:38:06.697Z,58.93
2018-12-06T10:40:36.942Z,69.57
2018-12-06T10:43:06.954Z,77.53
2018-12-06T10:45:37.167Z,96.57
2018-12-06T10:48:07.392Z,98.13
2018-12-06T10:50:37.401Z,115.27
2018-12-06T11:11:51.368Z,80.67
2018-12-06T11:14:21.472Z,67.60
2018-12-06T11:16:52.324Z,76.77
2018-12-06T11:19:22.451Z,70.37
2018-12-06T11:21:52.876Z,67.23
2018-12-06T11:24:22.891Z,62.03
2018-12-06T11:26:53.219Z,62.67
2018-12-06T11:29:23.499Z,60.47
2018-12-06T11:31:53.959Z,55.47
2018-12-06T11:34:24.272Z,65.13
2018-12-06T11:36:54.392Z,87.07
2018-12-06T11:39:24.958Z,114.03
2018-12-06T11:41:55.047Z,125.07
2018-12-06T11:44:25.033Z,91.37
2018-12-06T11:46:55.273Z,55.47
2018-12-06T12:08:10.673Z,30.73
2018-12-06T12:10:41.425Z,28.77
2018-12-06T12:13:12.769Z,27.30
2018-12-06T12:15:43.206Z,27.03
2018-12-06T12:18:14.325Z,31.30
2018-12-06T12:20:44.443Z,33.53
2018-12-06T12:23:15.185Z,36.80
2018-12-06T12:25:45.208Z,35.53
2018-12-06T12:28:15.225Z,26.33
2018-12-06T12:30:45.446Z,25.97
2018-12-06T12:33:15.663Z,28.50
2018-12-06T12:35:45.694Z,30.47
2018-12-06T12:38:16.004Z,30.17
2018-12-06T12:40:46.224Z,32.40
2018-12-06T12:43:16.435Z,32.77
2018-12-06T12:45:47.078Z,27.23
2018-12-06T12:48:17.817Z,25.83
2018-12-06T12:50:47.925Z,24.17
2018-12-06T12:53:18.355Z,21.67
2018-12-06T12:55:48.165Z,23.53
2018-12-06T12:58:18.912Z,21.37
2018-12-06T13:00:49.948Z,27.70
2018-12-06T13:03:20.170Z,36.10
2018-12-06T13:05:50.279Z,37.50
2018-12-06T13:08:20.493Z,33.70
2018-12-06T13:10:50.620Z,34.57
2018-12-06T13:13:21.041Z,26.87
2018-12-06T13:15:51.369Z,27.53
2018-12-06T13:18:22.480Z,28.90
2018-12-06T13:20:52.527Z,25.00
2018-12-06T13:23:23.163Z,34.23
2018-12-06T13:25:53.587Z,25.90
2018-12-06T13:28:24.235Z,27.13
2018-12-06T13:30:54.956Z,27.27
2018-12-06T13:33:25.388Z,22.70
2018-12-06T13:35:55.476Z,20.83
2018-12-06T13:38:26.026Z,22.10
2018-12-06T13:40:56.047Z,44.00
2018-12-06T13:43:25.947Z,25.27
2018-12-06T13:45:56.702Z,25.43
2018-12-06T13:48:26.995Z,19.47
2018-12-06T13:50:57.064Z,22.53
2018-12-06T13:53:27.447Z,24.73
2018-12-06T13:55:58.377Z,16.27
2018-12-06T13:58:29.216Z,21.43
2018-12-06T14:01:00.259Z,18.10
2018-12-06T14:03:30.809Z,21.90
2018-12-06T14:06:09.508Z,18.33
2018-12-06T14:08:42.066Z,18.23
2018-12-06T14:11:13.446Z,20.00
2018-12-06T14:13:46.541Z,21.50
2018-12-06T14:16:16.964Z,22.83
2018-12-06T14:18:47.500Z,41.00
2018-12-06T14:21:18.205Z,29.83
2018-12-06T14:23:49.245Z,30.20
2018-12-06T14:26:20.193Z,24.77
2018-12-06T14:28:50.502Z,31.03
2018-12-06T14:31:20.537Z,27.50
2018-12-06T14:33:51.377Z,31.47
2018-12-06T14:36:22.339Z,35.87
2018-12-06T14:38:53.258Z,24.23
2018-12-06T14:41:23.352Z,27.10
2018-12-06T14:43:54.404Z,54.90
2018-12-06T14:46:25.436Z,61.93
2018-12-06T14:48:55.959Z,42.87
2018-12-06T14:51:25.769Z,43.80
2018-12-06T14:53:55.896Z,32.83
2018-12-06T14:56:25.816Z,30.10
2018-12-06T14:58:56.254Z,36.03
2018-12-06T15:01:26.872Z,27.57
2018-12-06T15:03:56.879Z,29.33
2018-12-06T15:06:26.697Z,27.33
2018-12-06T15:08:56.815Z,23.97
2018-12-06T15:11:26.822Z,21.17
2018-12-06T15:13:58.283Z,20.83
2018-12-06T15:16:28.186Z,26.93
2018-12-06T15:18:59.025Z,25.33
2018-12-06T15:40:12.173Z,29.93
2018-12-06T16:01:27.472Z,35.57
2018-12-06T16:03:58.620Z,29.03
2018-12-06T16:06:30.978Z,26.97
2018-12-06T16:09:02.019Z,23.23
2018-12-06T16:11:31.933Z,30.57
2018-12-06T16:14:02.151Z,30.93
2018-12-06T16:16:33.085Z,36.50
2018-12-06T16:19:03.930Z,30.17
2018-12-06T16:21:37.423Z,26.37
2018-12-06T16:24:07.133Z,26.20
2018-12-06T16:26:37.869Z,26.37
2018-12-06T16:29:07.880Z,28.00
2018-12-06T16:31:37.896Z,27.03
2018-12-06T16:34:07.511Z,22.57
2018-12-06T16:36:37.840Z,24.87
2018-12-06T16:39:08.569Z,24.63
2018-12-06T16:41:38.372Z,24.57
2018-12-06T16:44:08.394Z,24.30
2018-12-06T16:46:38.412Z,22.33
2018-12-06T16:49:10.330Z,26.07
2018-12-06T16:51:40.382Z,26.23
2018-12-06T16:54:10.402Z,25.10
2018-12-06T16:56:40.743Z,32.80
2018-12-06T16:59:10.543Z,25.07
2018-12-06T17:01:40.354Z,25.53
2018-12-06T17:04:10.268Z,24.67
2018-12-06T17:06:40.484Z,27.70
2018-12-06T17:09:10.200Z,28.90
2018-12-06T17:11:40.011Z,25.97
2018-12-06T17:14:09.513Z,24.93
2018-12-06T17:16:39.221Z,24.30
2018-12-06T17:19:09.541Z,25.57
2018-12-06T17:21:39.254Z,29.97
2018-12-06T17:24:09.433Z,27.70
2018-12-06T17:26:39.394Z,27.17
2018-12-06T17:29:12.167Z,32.50
2018-12-06T17:31:43.619Z,22.87
2018-12-06T17:34:17.031Z,23.77
2018-12-06T17:36:47.949Z,23.63
2018-12-06T17:39:17.760Z,25.40
2018-12-06T17:41:47.783Z,24.67
2018-12-06T17:44:18.000Z,40.03
2018-12-06T17:46:47.922Z,68.77
2018-12-06T17:49:17.933Z,57.93
2018-12-06T17:51:47.433Z,48.53
2018-12-06T17:54:17.034Z,49.87
2018-12-06T17:56:47.362Z,40.77
2018-12-06T17:59:17.491Z,39.03
2018-12-06T18:01:48.011Z,33.97
2018-12-06T18:04:21.004Z,31.63
2018-12-06T18:06:54.193Z,30.57
2018-12-06T18:09:23.798Z,34.43
2018-12-06T18:11:53.503Z,34.97
2018-12-06T18:14:23.423Z,34.30
2018-12-06T18:16:53.947Z,32.73
2018-12-06T18:19:24.171Z,35.03
2018-12-06T18:21:54.491Z,38.90
2018-12-06T18:24:24.316Z,38.50
2018-12-06T18:26:54.223Z,39.87
2018-12-06T18:29:25.162Z,39.87
2018-12-06T18:31:55.599Z,40.43
2018-12-06T18:34:25.909Z,37.80
2018-12-06T18:36:55.936Z,40.73
2018-12-06T18:39:25.874Z,40.67
2018-12-06T18:41:55.882Z,38.57
2018-12-06T18:44:26.205Z,39.10
2018-12-06T18:46:57.041Z,40.97
2018-12-06T18:49:27.055Z,33.67
2018-12-06T18:51:57.051Z,40.63
2018-12-06T18:54:27.006Z,39.67
2018-12-06T18:56:57.502Z,37.17
2018-12-06T18:59:28.270Z,35.50
2018-12-06T19:01:58.139Z,32.67
2018-12-06T19:04:28.096Z,40.63
2018-12-06T19:06:57.996Z,32.50
2018-12-06T19:09:28.196Z,34.77
2018-12-06T19:11:58.675Z,37.47
2018-12-06T19:14:30.009Z,34.53
2018-12-06T19:17:00.443Z,32.40
2018-12-06T19:19:32.357Z,32.70
2018-12-06T19:22:02.805Z,35.37
2018-12-06T19:24:39.169Z,32.23
2018-12-06T19:27:09.391Z,32.30
2018-12-06T19:29:42.354Z,39.47
2018-12-06T19:32:14.005Z,37.37
2018-12-06T19:34:44.636Z,38.37
2018-12-06T19:37:14.545Z,34.63
2018-12-06T19:39:46.725Z,38.73
2018-12-06T19:42:17.598Z,36.57
2018-12-06T19:44:47.381Z,35.83
2018-12-06T19:47:18.437Z,40.90
2018-12-06T19:49:48.038Z,42.60
2018-12-06T19:52:18.558Z,37.87
2018-12-06T19:54:48.884Z,37.37
2018-12-06T19:57:21.854Z,32.43
2018-12-06T19:59:52.285Z,35.23
2018-12-06T20:02:22.189Z,36.47
2018-12-06T20:04:55.298Z,34.53
2018-12-06T20:07:25.083Z,37.67
2018-12-06T20:09:55.456Z,37.57
2018-12-06T20:12:25.866Z,38.77
2018-12-06T20:14:56.282Z,33.60
2018-12-06T20:36:10.245Z,37.97
2018-12-06T20:38:41.277Z,40.03
2018-12-06T20:41:11.187Z,38.10
2018-12-06T20:43:42.237Z,45.47
2018-12-06T20:46:12.447Z,43.67
2018-12-06T20:48:42.466Z,42.47
2018-12-06T20:51:12.496Z,41.63
2018-12-06T20:53:45.151Z,42.20
2018-12-06T20:56:14.998Z,47.60
2018-12-06T20:58:44.986Z,45.70
2018-12-06T21:01:17.061Z,48.90
2018-12-06T21:03:47.056Z,49.90
2018-12-06T21:06:16.664Z,48.30
2018-12-06T21:08:46.898Z,49.10
2018-12-06T21:11:16.618Z,53.90
2018-12-06T21:13:46.527Z,51.30
2018-12-06T21:16:16.532Z,46.57
2018-12-06T21:18:46.465Z,48.00
2018-12-06T21:21:15.949Z,45.33
2018-12-06T21:23:45.768Z,48.37
2018-12-06T21:26:15.373Z,48.87
2018-12-06T21:28:45.487Z,49.67
2018-12-06T21:31:15.926Z,44.90
2018-12-06T21:33:45.519Z,54.13
2018-12-06T21:36:15.428Z,49.90
2018-12-06T21:38:45.366Z,51.13
2018-12-06T21:41:16.382Z,50.37
2018-12-06T21:43:46.031Z,46.17
2018-12-06T21:46:15.935Z,55.90
2018-12-06T21:48:45.513Z,41.80
2018-12-06T21:51:15.031Z,50.47
2018-12-06T21:53:44.540Z,52.77
2018-12-06T21:56:14.240Z,46.40
2018-12-06T21:58:44.067Z,64.47
2018-12-06T22:01:14.060Z,46.90
2018-12-06T22:03:44.294Z,64.07
2018-12-06T22:06:14.289Z,46.87
2018-12-06T22:08:44.035Z,51.00
2018-12-06T22:11:13.944Z,45.93
2018-12-06T22:13:43.948Z,55.27
2018-12-06T22:16:14.584Z,55.47
2018-12-06T22:18:45.070Z,51.50
2018-12-06T22:21:16.055Z,45.57
2018-12-06T22:23:46.268Z,49.23
2018-12-06T22:26:16.379Z,49.03
2018-12-06T22:28:47.848Z,47.60
2018-12-06T22:31:18.876Z,47.23
2018-12-06T22:33:49.417Z,45.13
2018-12-06T22:36:20.441Z,47.10
2018-12-06T22:38:50.984Z,40.10
2018-12-06T22:41:20.805Z,45.60
2018-12-06T22:43:51.376Z,39.80
2018-12-06T22:46:21.845Z,39.80
2018-12-06T22:48:51.976Z,40.17
2018-12-06T22:51:24.444Z,42.67
2018-12-06T22:53:53.846Z,46.10
2018-12-06T22:56:23.431Z,41.87
2018-12-06T22:58:53.468Z,41.03
2018-12-06T23:01:27.035Z,39.47
2018-12-06T23:03:57.045Z,39.83
2018-12-06T23:06:26.983Z,43.97
2018-12-06T23:08:56.378Z,40.90
2018-12-06T23:11:26.408Z,39.37
2018-12-06T23:13:56.032Z,44.00
2018-12-06T23:16:25.743Z,37.50
2018-12-06T23:18:55.523Z,37.37
2018-12-06T23:21:25.436Z,40.07
2018-12-06T23:23:55.054Z,40.50
2018-12-06T23:26:24.868Z,39.00
2018-12-06T23:28:54.667Z,38.10
2018-12-06T23:31:24.483Z,36.50
2018-12-06T23:33:54.508Z,33.33
2018-12-06T23:36:24.203Z,32.87
2018-12-06T23:38:54.124Z,36.03
2018-12-06T23:41:23.933Z,33.40
2018-12-06T23:43:54.279Z,34.83
2018-12-06T23:46:23.963Z,34.83
2018-12-06T23:48:53.490Z,31.13
2018-12-06T23:51:27.375Z,35.30
2018-12-06T23:53:56.983Z,31.73
2018-12-06T23:56:26.911Z,32.23
2018-12-06T23:58:56.507Z,30.70
